createdAt,value
2023-04-16T00:00:22.664Z,994.19
2023-04-16T00:01:22.619Z,994.10
2023-04-16T00:02:22.785Z,994.21
2023-04-16T00:03:22.869Z,994.19
2023-04-16T00:04:22.708Z,994.16
2023-04-16T00:05:22.642Z,994.17
2023-04-16T00:06:22.582Z,994.09
2023-04-16T00:07:22.571Z,994.15
2023-04-16T00:08:22.571Z,994.12
2023-04-16T00:09:22.568Z,994.17
2023-04-16T00:10:22.586Z,994.16
2023-04-16T00:11:22.554Z,994.19
2023-04-16T00:12:22.543Z,994.16
2023-04-16T00:13:22.569Z,994.15
2023-04-16T00:14:22.528Z,994.16
2023-04-16T00:15:22.547Z,994.21
2023-04-16T00:16:22.521Z,994.23
2023-04-16T00:17:22.534Z,994.13
2023-04-16T00:18:22.506Z,994.14
2023-04-16T00:19:22.489Z,994.14
2023-04-16T00:20:22.501Z,994.22
2023-04-16T00:21:22.468Z,994.21
2023-04-16T00:22:22.469Z,994.18
2023-04-16T00:23:22.458Z,994.20
2023-04-16T00:24:22.443Z,994.23
2023-04-16T00:25:22.472Z,994.18
2023-04-16T00:26:22.434Z,994.10
2023-04-16T00:27:22.423Z,994.19
2023-04-16T00:28:22.412Z,994.20
2023-04-16T00:29:22.409Z,994.20
2023-04-16T00:30:22.422Z,994.15
2023-04-16T00:31:22.432Z,994.21
2023-04-16T00:32:22.408Z,994.16
2023-04-16T00:33:22.387Z,994.21
2023-04-16T00:34:22.375Z,994.23
2023-04-16T00:35:22.404Z,994.17
2023-04-16T00:36:22.360Z,994.19
2023-04-16T00:37:22.344Z,994.18
2023-04-16T00:38:22.344Z,994.20
2023-04-16T00:39:22.328Z,994.22
2023-04-16T00:40:22.369Z,994.17
2023-04-16T00:41:22.319Z,994.19
2023-04-16T00:42:22.337Z,994.13
2023-04-16T00:43:22.300Z,994.15
2023-04-16T00:44:22.284Z,994.16
2023-04-16T00:45:23.306Z,994.12
2023-04-16T00:46:22.300Z,994.17
2023-04-16T00:47:22.284Z,994.21
2023-04-16T00:48:22.263Z,994.17
2023-04-16T00:49:22.260Z,994.18
2023-04-16T00:50:22.279Z,994.15
2023-04-16T00:51:22.240Z,994.18
2023-04-16T00:52:22.229Z,994.22
2023-04-16T00:53:22.227Z,994.21
2023-04-16T00:54:22.240Z,994.18
2023-04-16T00:55:22.226Z,994.20
2023-04-16T00:56:22.311Z,994.22
2023-04-16T00:57:22.226Z,994.19
2023-04-16T00:58:22.186Z,994.19
2023-04-16T00:59:22.203Z,994.20
2023-04-16T01:00:22.173Z,994.24
2023-04-16T01:01:22.215Z,994.28
2023-04-16T01:02:22.251Z,994.25
2023-04-16T01:03:22.323Z,994.26
2023-04-16T01:04:22.179Z,994.29
2023-04-16T01:05:22.138Z,994.28
2023-04-16T01:06:22.152Z,994.25
2023-04-16T01:07:22.128Z,994.29
2023-04-16T01:08:22.110Z,994.25
2023-04-16T01:09:22.103Z,994.24
2023-04-16T01:10:22.099Z,994.25
2023-04-16T01:11:22.117Z,994.28
2023-04-16T01:12:22.099Z,994.22
2023-04-16T01:13:22.091Z,994.25
2023-04-16T01:14:22.085Z,994.25
2023-04-16T01:15:22.058Z,994.26
2023-04-16T01:16:22.129Z,994.27
2023-04-16T01:17:22.060Z,994.32
2023-04-16T01:18:22.043Z,994.32
2023-04-16T01:19:22.070Z,994.30
2023-04-16T01:20:22.024Z,994.29
2023-04-16T01:21:23.037Z,994.36
2023-04-16T01:22:22.006Z,994.34
2023-04-16T01:23:21.999Z,994.37
2023-04-16T01:24:21.991Z,994.35
2023-04-16T01:25:21.976Z,994.37
2023-04-16T01:26:22.017Z,994.36
2023-04-16T01:27:21.983Z,994.33
2023-04-16T01:28:22.968Z,994.35
2023-04-16T01:29:21.957Z,994.37
2023-04-16T01:30:21.948Z,994.36
2023-04-16T01:31:21.983Z,994.40
2023-04-16T01:32:21.944Z,994.32
2023-04-16T01:33:21.921Z,994.42
2023-04-16T01:34:21.912Z,994.49
2023-04-16T01:35:21.900Z,994.43
2023-04-16T01:36:21.913Z,994.44
2023-04-16T01:37:21.887Z,994.47
2023-04-16T01:38:21.899Z,994.47
2023-04-16T01:39:21.875Z,994.28
2023-04-16T01:40:21.870Z,994.40
2023-04-16T01:41:21.891Z,994.48
2023-04-16T01:42:21.855Z,994.50
2023-04-16T01:43:21.840Z,994.52
2023-04-16T01:44:21.830Z,994.48
2023-04-16T01:45:21.837Z,994.51
2023-04-16T01:46:21.891Z,994.51
2023-04-16T01:47:21.847Z,994.52
2023-04-16T01:48:21.806Z,994.51
2023-04-16T01:49:21.794Z,994.54
2023-04-16T01:50:21.806Z,994.59
2023-04-16T01:51:21.817Z,994.49
2023-04-16T01:52:21.782Z,994.50
2023-04-16T01:53:21.773Z,994.47
2023-04-16T01:54:21.761Z,994.59
2023-04-16T01:55:21.773Z,994.58
2023-04-16T01:56:21.777Z,994.52
2023-04-16T01:57:21.744Z,994.58
2023-04-16T01:58:21.741Z,994.56
2023-04-16T01:59:21.729Z,994.59
2023-04-16T02:00:21.719Z,994.53
2023-04-16T02:01:21.767Z,994.57
2023-04-16T02:02:21.829Z,994.53
2023-04-16T02:03:21.854Z,994.58
2023-04-16T02:04:21.694Z,994.53
2023-04-16T02:05:21.679Z,994.53
2023-04-16T02:06:21.693Z,994.49
2023-04-16T02:07:21.663Z,994.52
2023-04-16T02:08:21.653Z,994.56
2023-04-16T02:09:21.643Z,994.55
2023-04-16T02:10:21.638Z,994.56
2023-04-16T02:11:21.656Z,994.63
2023-04-16T02:12:21.633Z,994.60
2023-04-16T02:13:21.626Z,994.57
2023-04-16T02:14:21.613Z,994.58
2023-04-16T02:15:21.593Z,994.61
2023-04-16T02:16:21.623Z,994.64
2023-04-16T02:17:21.676Z,994.66
2023-04-16T02:18:21.579Z,994.65
2023-04-16T02:19:21.568Z,994.60
2023-04-16T02:20:21.553Z,994.56
2023-04-16T02:21:21.589Z,994.65
2023-04-16T02:22:21.545Z,994.63
2023-04-16T02:23:21.534Z,994.55
2023-04-16T02:24:21.525Z,994.65
2023-04-16T02:25:21.518Z,994.62
2023-04-16T02:26:21.533Z,994.60
2023-04-16T02:27:21.499Z,994.70
2023-04-16T02:28:21.488Z,994.63
2023-04-16T02:29:21.490Z,994.66
2023-04-16T02:30:21.492Z,994.69
2023-04-16T02:31:21.530Z,994.72
2023-04-16T02:32:21.501Z,994.69
2023-04-16T02:33:21.460Z,994.65
2023-04-16T02:34:21.449Z,994.72
2023-04-16T02:35:21.448Z,994.63
2023-04-16T02:36:21.435Z,994.66
2023-04-16T02:37:21.462Z,994.66
2023-04-16T02:38:21.422Z,994.64
2023-04-16T02:39:21.419Z,994.64
2023-04-16T02:40:21.406Z,994.67
2023-04-16T02:41:22.393Z,994.63
2023-04-16T02:42:21.416Z,994.68
2023-04-16T02:43:21.383Z,994.70
2023-04-16T02:44:21.395Z,994.74
2023-04-16T02:45:21.386Z,994.72
2023-04-16T02:46:21.371Z,994.73
2023-04-16T02:47:21.389Z,994.71
2023-04-16T02:48:21.355Z,994.75
2023-04-16T02:49:21.337Z,994.72
2023-04-16T02:50:21.378Z,994.68
2023-04-16T02:51:21.330Z,994.67
2023-04-16T02:52:21.343Z,994.70
2023-04-16T02:53:21.315Z,994.73
2023-04-16T02:54:21.292Z,994.73
2023-04-16T02:55:21.295Z,994.73
2023-04-16T02:56:21.289Z,994.69
2023-04-16T02:57:21.309Z,994.70
2023-04-16T02:58:21.275Z,994.72
2023-04-16T02:59:21.263Z,994.75
2023-04-16T03:00:21.267Z,994.63
2023-04-16T03:01:21.282Z,994.68
2023-04-16T03:02:21.337Z,994.72
2023-04-16T03:03:21.258Z,994.71
2023-04-16T03:04:21.275Z,994.74
2023-04-16T03:05:21.226Z,994.68
2023-04-16T03:06:21.209Z,994.70
2023-04-16T03:07:21.886Z,994.63
2023-04-16T03:08:21.224Z,994.65
2023-04-16T03:09:21.190Z,994.76
2023-04-16T03:10:21.181Z,994.73
2023-04-16T03:11:21.167Z,994.74
2023-04-16T03:12:21.185Z,994.69
2023-04-16T03:13:21.163Z,994.77
2023-04-16T03:14:21.178Z,994.69
2023-04-16T03:15:21.141Z,994.64
2023-04-16T03:16:21.182Z,994.72
2023-04-16T03:17:21.186Z,994.68
2023-04-16T03:18:21.117Z,994.63
2023-04-16T03:19:21.109Z,994.66
2023-04-16T03:20:21.101Z,994.66
2023-04-16T03:21:21.103Z,994.67
2023-04-16T03:22:21.138Z,994.67
2023-04-16T03:23:21.083Z,994.67
2023-04-16T03:24:21.105Z,994.76
2023-04-16T03:25:22.065Z,994.68
2023-04-16T03:26:21.062Z,994.67
2023-04-16T03:27:21.277Z,994.77
2023-04-16T03:28:21.046Z,994.72
2023-04-16T03:29:21.038Z,994.74
2023-04-16T03:30:21.034Z,994.74
2023-04-16T03:31:21.106Z,994.80
2023-04-16T03:32:21.081Z,994.77
2023-04-16T03:33:21.026Z,994.80
2023-04-16T03:34:20.995Z,994.80
2023-04-16T03:35:21.002Z,994.86
2023-04-16T03:36:20.974Z,994.82
2023-04-16T03:37:20.969Z,994.85
2023-04-16T03:38:20.998Z,994.80
2023-04-16T03:39:20.956Z,994.82
2023-04-16T03:40:20.958Z,994.83
2023-04-16T03:41:20.937Z,994.90
2023-04-16T03:42:20.959Z,994.89
2023-04-16T03:43:20.953Z,994.86
2023-04-16T03:44:20.916Z,994.81
2023-04-16T03:45:20.908Z,994.89
2023-04-16T03:46:21.018Z,994.78
2023-04-16T03:47:20.921Z,994.88
2023-04-16T03:48:20.917Z,994.91
2023-04-16T03:49:20.887Z,994.88
2023-04-16T03:50:20.879Z,994.87
2023-04-16T03:51:20.898Z,994.86
2023-04-16T03:52:20.856Z,994.81
2023-04-16T03:53:20.874Z,994.81
2023-04-16T03:54:22.546Z,994.83
2023-04-16T03:55:21.831Z,994.86
2023-04-16T03:56:20.824Z,994.87
2023-04-16T03:57:20.814Z,994.84
2023-04-16T03:58:21.092Z,994.78
2023-04-16T03:59:20.796Z,994.80
2023-04-16T04:00:20.799Z,994.84
2023-04-16T04:01:20.799Z,994.79
2023-04-16T04:02:20.857Z,994.88
2023-04-16T04:03:21.009Z,994.90
2023-04-16T04:04:20.863Z,994.90
2023-04-16T04:05:20.754Z,994.92
2023-04-16T04:06:20.748Z,994.88
2023-04-16T04:07:20.934Z,994.78
2023-04-16T04:08:20.738Z,994.90
2023-04-16T04:09:20.725Z,994.93
2023-04-16T04:10:20.717Z,994.87
2023-04-16T04:11:20.707Z,994.93
2023-04-16T04:12:20.734Z,994.94
2023-04-16T04:13:20.692Z,994.94
2023-04-16T04:14:20.696Z,994.93
2023-04-16T04:15:20.679Z,994.99
2023-04-16T04:16:20.710Z,994.98
2023-04-16T04:17:20.723Z,994.97
2023-04-16T04:18:20.662Z,994.94
2023-04-16T04:19:20.654Z,995.02
2023-04-16T04:20:20.640Z,995.05
2023-04-16T04:21:20.643Z,995.02
2023-04-16T04:22:20.653Z,995.03
2023-04-16T04:23:20.605Z,995.09
2023-04-16T04:24:21.614Z,995.08
2023-04-16T04:25:20.606Z,995.05
2023-04-16T04:26:20.633Z,995.09
2023-04-16T04:27:20.618Z,995.08
2023-04-16T04:28:20.585Z,995.04
2023-04-16T04:29:20.576Z,995.12
2023-04-16T04:30:20.571Z,995.07
2023-04-16T04:31:20.601Z,995.04
2023-04-16T04:32:20.623Z,995.00
2023-04-16T04:33:20.554Z,995.06
2023-04-16T04:34:20.542Z,995.08
2023-04-16T04:35:20.532Z,995.08
2023-04-16T04:36:20.519Z,995.07
2023-04-16T04:37:20.542Z,995.10
2023-04-16T04:38:20.503Z,995.04
2023-04-16T04:39:20.500Z,995.11
2023-04-16T04:40:20.493Z,995.06
2023-04-16T04:41:20.478Z,995.10
2023-04-16T04:42:20.502Z,995.17
2023-04-16T04:43:20.486Z,995.13
2023-04-16T04:44:20.458Z,995.15
2023-04-16T04:45:20.450Z,995.13
2023-04-16T04:46:20.511Z,995.14
2023-04-16T04:47:20.493Z,995.18
2023-04-16T04:48:20.474Z,995.17
2023-04-16T04:49:20.419Z,995.17
2023-04-16T04:50:20.423Z,995.17
2023-04-16T04:51:20.407Z,995.18
2023-04-16T04:52:20.423Z,995.19
2023-04-16T04:53:20.389Z,995.24
2023-04-16T04:54:20.402Z,995.22
2023-04-16T04:55:20.385Z,995.29
2023-04-16T04:56:20.370Z,995.24
2023-04-16T04:57:52.303Z,995.22
2023-04-16T04:58:20.363Z,995.23
2023-04-16T04:59:20.347Z,995.30
2023-04-16T05:00:20.339Z,995.28
2023-04-16T05:01:20.377Z,995.27
2023-04-16T05:02:20.520Z,995.29
2023-04-16T05:03:20.453Z,995.31
2023-04-16T05:04:20.355Z,995.31
2023-04-16T05:05:20.380Z,995.27
2023-04-16T05:06:20.294Z,995.38
2023-04-16T05:07:20.327Z,995.31
2023-04-16T05:08:20.276Z,995.29
2023-04-16T05:09:20.273Z,995.29
2023-04-16T05:10:20.268Z,995.36
2023-04-16T05:11:20.315Z,995.38
2023-04-16T05:12:20.280Z,995.35
2023-04-16T05:13:20.289Z,995.41
2023-04-16T05:14:20.266Z,995.42
2023-04-16T05:15:20.229Z,995.45
2023-04-16T05:16:20.442Z,995.41
2023-04-16T05:17:20.266Z,995.47
2023-04-16T05:18:20.203Z,995.41
2023-04-16T05:19:20.202Z,995.43
2023-04-16T05:20:20.186Z,995.44
2023-04-16T05:21:20.317Z,995.51
2023-04-16T05:22:20.199Z,995.50
2023-04-16T05:23:20.178Z,995.45
2023-04-16T05:24:20.162Z,995.47
2023-04-16T05:25:20.869Z,995.51
2023-04-16T05:26:20.151Z,995.50
2023-04-16T05:27:20.168Z,995.50
2023-04-16T05:28:20.137Z,995.56
2023-04-16T05:29:20.158Z,995.62
2023-04-16T05:30:20.116Z,995.59
2023-04-16T05:31:20.204Z,995.61
2023-04-16T05:32:20.465Z,995.60
2023-04-16T05:33:20.097Z,995.61
2023-04-16T05:34:20.084Z,995.60
2023-04-16T05:35:20.167Z,995.59
2023-04-16T05:36:20.071Z,995.63
2023-04-16T05:37:20.089Z,995.68
2023-04-16T05:38:20.094Z,995.69
2023-04-16T05:39:20.048Z,995.62
2023-04-16T05:40:20.034Z,995.66
2023-04-16T05:41:20.101Z,995.69
2023-04-16T05:42:20.075Z,995.71
2023-04-16T05:43:20.029Z,995.72
2023-04-16T05:44:20.012Z,995.69
2023-04-16T05:45:20.013Z,995.75
2023-04-16T05:46:20.046Z,995.74
2023-04-16T05:47:20.031Z,995.81
2023-04-16T05:48:19.998Z,995.81
2023-04-16T05:49:20.013Z,995.85
2023-04-16T05:50:20.015Z,995.82
2023-04-16T05:51:19.997Z,995.87
2023-04-16T05:52:19.970Z,995.83
2023-04-16T05:53:19.943Z,995.89
2023-04-16T05:54:19.930Z,995.90
2023-04-16T05:55:19.927Z,995.89
2023-04-16T05:56:19.916Z,995.90
2023-04-16T05:57:19.960Z,995.94
2023-04-16T05:58:19.903Z,995.91
2023-04-16T05:59:19.898Z,995.85
2023-04-16T06:00:19.889Z,995.94
2023-04-16T06:01:19.877Z,995.99
2023-04-16T06:02:20.007Z,995.96
2023-04-16T06:03:19.959Z,995.94
2023-04-16T06:04:20.080Z,995.98
2023-04-16T06:05:20.398Z,996.02
2023-04-16T06:06:19.842Z,995.99
2023-04-16T06:07:19.845Z,996.06
2023-04-16T06:08:19.847Z,996.01
2023-04-16T06:09:19.818Z,996.02
2023-04-16T06:10:19.804Z,996.00
2023-04-16T06:11:19.826Z,996.02
2023-04-16T06:12:19.795Z,995.99
2023-04-16T06:13:19.828Z,996.09
2023-04-16T06:14:19.783Z,996.09
2023-04-16T06:15:19.766Z,996.02
2023-04-16T06:16:19.836Z,996.04
2023-04-16T06:17:19.807Z,996.07
2023-04-16T06:18:19.778Z,996.09
2023-04-16T06:19:19.741Z,996.12
2023-04-16T06:20:19.740Z,996.16
2023-04-16T06:21:19.730Z,996.09
2023-04-16T06:22:19.725Z,996.10
2023-04-16T06:23:19.730Z,996.19
2023-04-16T06:24:19.711Z,996.17
2023-04-16T06:25:19.693Z,996.28
2023-04-16T06:26:19.687Z,996.19
2023-04-16T06:27:19.683Z,996.15
2023-04-16T06:28:19.720Z,996.13
2023-04-16T06:29:20.457Z,996.20
2023-04-16T06:30:19.670Z,996.15
2023-04-16T06:31:20.407Z,996.19
2023-04-16T06:32:19.729Z,996.19
2023-04-16T06:33:19.666Z,996.23
2023-04-16T06:34:20.259Z,996.26
2023-04-16T06:35:19.637Z,996.24
2023-04-16T06:36:19.605Z,996.17
2023-04-16T06:37:19.604Z,996.15
2023-04-16T06:38:19.620Z,996.21
2023-04-16T06:39:19.589Z,996.21
2023-04-16T06:40:19.598Z,996.21
2023-04-16T06:41:19.594Z,996.21
2023-04-16T06:42:19.619Z,996.23
2023-04-16T06:43:19.588Z,996.21
2023-04-16T06:44:19.556Z,996.25
2023-04-16T06:45:19.545Z,996.23
2023-04-16T06:46:19.557Z,996.27
2023-04-16T06:48:19.549Z,996.34
2023-04-16T06:49:19.609Z,996.27
2023-04-16T06:50:19.503Z,996.26
2023-04-16T06:51:19.504Z,996.29
2023-04-16T06:52:19.495Z,996.25
2023-04-16T06:53:19.513Z,996.35
2023-04-16T06:54:19.487Z,996.37
2023-04-16T06:55:19.474Z,996.38
2023-04-16T06:56:19.467Z,996.34
2023-04-16T06:57:19.451Z,996.37
2023-04-16T06:58:19.465Z,996.31
2023-04-16T06:59:19.469Z,996.32
2023-04-16T07:00:19.426Z,996.36
2023-04-16T07:01:19.446Z,996.34
2023-04-16T07:02:19.559Z,996.35
2023-04-16T07:03:19.556Z,996.35
2023-04-16T07:04:19.545Z,996.34
2023-04-16T07:05:19.388Z,996.36
2023-04-16T07:06:19.375Z,996.42
2023-04-16T07:07:19.941Z,996.35
2023-04-16T07:08:19.388Z,996.41
2023-04-16T07:09:19.359Z,996.42
2023-04-16T07:10:19.405Z,996.40
2023-04-16T07:11:19.346Z,996.38
2023-04-16T07:12:21.303Z,996.38
2023-04-16T07:13:19.350Z,996.45
2023-04-16T07:14:19.308Z,996.45
2023-04-16T07:15:20.357Z,996.42
2023-04-16T07:16:19.395Z,996.44
2023-04-16T07:17:19.348Z,996.44
2023-04-16T07:18:20.719Z,996.46
2023-04-16T07:19:20.285Z,996.46
2023-04-16T07:20:19.275Z,996.49
2023-04-16T07:21:19.275Z,996.51
2023-04-16T07:22:19.937Z,996.46
2023-04-16T07:23:19.271Z,996.48
2023-04-16T07:24:19.245Z,996.52
2023-04-16T07:25:19.240Z,996.61
2023-04-16T07:26:19.231Z,996.58
2023-04-16T07:27:19.289Z,996.54
2023-04-16T07:28:19.235Z,996.56
2023-04-16T07:29:19.208Z,996.65
2023-04-16T07:30:19.197Z,996.58
2023-04-16T07:31:19.223Z,996.60
2023-04-16T07:32:19.352Z,996.68
2023-04-16T07:33:19.217Z,996.65
2023-04-16T07:34:19.171Z,996.68
2023-04-16T07:35:19.173Z,996.66
2023-04-16T07:36:19.154Z,996.66
2023-04-16T07:37:19.142Z,996.67
2023-04-16T07:38:19.158Z,996.75
2023-04-16T07:39:19.140Z,996.75
2023-04-16T07:40:19.125Z,996.71
2023-04-16T07:41:19.111Z,996.73
2023-04-16T07:42:19.104Z,996.81
2023-04-16T07:43:19.138Z,996.81
2023-04-16T07:44:19.088Z,996.79
2023-04-16T07:45:19.080Z,996.80
2023-04-16T07:46:19.110Z,996.76
2023-04-16T07:47:19.112Z,996.84
2023-04-16T07:48:19.095Z,996.72
2023-04-16T07:49:19.054Z,996.77
2023-04-16T07:50:19.051Z,996.77
2023-04-16T07:51:19.039Z,996.84
2023-04-16T07:52:19.063Z,996.76
2023-04-16T07:53:19.040Z,996.84
2023-04-16T07:54:19.046Z,996.82
2023-04-16T07:55:19.011Z,996.84
2023-04-16T07:56:19.004Z,996.88
2023-04-16T07:57:19.043Z,996.82
2023-04-16T07:58:18.990Z,996.84
2023-04-16T07:59:23.494Z,996.83
2023-04-16T08:00:20.004Z,996.86
2023-04-16T08:01:18.980Z,996.92
2023-04-16T08:02:18.986Z,996.90
2023-04-16T08:03:19.072Z,996.93
2023-04-16T08:04:19.030Z,996.91
2023-04-16T08:05:18.985Z,996.95
2023-04-16T08:06:18.948Z,996.92
2023-04-16T08:07:18.922Z,996.97
2023-04-16T08:08:18.914Z,996.99
2023-04-16T08:09:18.928Z,997.03
2023-04-16T08:10:18.902Z,996.99
2023-04-16T08:11:18.898Z,997.00
2023-04-16T08:12:19.828Z,997.02
2023-04-16T08:13:18.876Z,996.99
2023-04-16T08:14:18.915Z,997.01
2023-04-16T08:15:18.872Z,997.03
2023-04-16T08:16:18.882Z,997.07
2023-04-16T08:17:18.841Z,997.08
2023-04-16T08:18:18.837Z,997.05
2023-04-16T08:19:18.852Z,997.10
2023-04-16T08:20:19.528Z,997.05
2023-04-16T08:21:18.818Z,997.14
2023-04-16T08:22:18.808Z,997.13
2023-04-16T08:23:18.816Z,997.14
2023-04-16T08:24:18.820Z,997.10
2023-04-16T08:25:18.821Z,997.18
2023-04-16T08:26:18.793Z,997.13
2023-04-16T08:27:20.189Z,997.21
2023-04-16T08:28:18.765Z,997.18
2023-04-16T08:29:18.777Z,997.23
2023-04-16T08:30:18.748Z,997.26
2023-04-16T08:31:18.749Z,997.22
2023-04-16T08:32:18.808Z,997.29
2023-04-16T08:33:18.727Z,997.23
2023-04-16T08:34:18.756Z,997.23
2023-04-16T08:35:18.715Z,997.29
2023-04-16T08:36:18.713Z,997.30
2023-04-16T08:37:18.696Z,997.29
2023-04-16T08:38:18.694Z,997.34
2023-04-16T08:39:18.704Z,997.37
2023-04-16T08:40:18.673Z,997.35
2023-04-16T08:41:18.663Z,997.40
2023-04-16T08:42:18.655Z,997.31
2023-04-16T08:43:18.684Z,997.42
2023-04-16T08:44:18.679Z,997.43
2023-04-16T08:45:18.639Z,997.40
2023-04-16T08:46:18.669Z,997.40
2023-04-16T08:47:18.631Z,997.42
2023-04-16T08:48:18.630Z,997.42
2023-04-16T08:49:18.637Z,997.44
2023-04-16T08:50:18.638Z,997.41
2023-04-16T08:51:18.585Z,997.40
2023-04-16T08:52:18.576Z,997.47
2023-04-16T08:53:18.588Z,997.52
2023-04-16T08:54:18.591Z,997.48
2023-04-16T08:55:18.553Z,997.49
2023-04-16T08:56:18.552Z,997.48
2023-04-16T08:57:18.545Z,997.45
2023-04-16T08:58:18.559Z,997.48
2023-04-16T08:59:18.552Z,997.52
2023-04-16T09:00:18.516Z,997.58
2023-04-16T09:01:18.595Z,997.52
2023-04-16T09:02:18.650Z,997.55
2023-04-16T09:03:18.591Z,997.49
2023-04-16T09:04:18.599Z,997.58
2023-04-16T09:05:18.476Z,997.54
2023-04-16T09:06:18.512Z,997.56
2023-04-16T09:07:18.458Z,997.61
2023-04-16T09:08:18.462Z,997.60
2023-04-16T09:09:18.470Z,997.56
2023-04-16T09:10:18.442Z,997.60
2023-04-16T09:11:18.430Z,997.56
2023-04-16T09:12:18.422Z,997.57
2023-04-16T09:13:18.496Z,997.56
2023-04-16T09:14:18.439Z,997.62
2023-04-16T09:15:18.394Z,997.62
2023-04-16T09:16:18.414Z,997.70
2023-04-16T09:17:18.384Z,997.66
2023-04-16T09:18:18.365Z,997.64
2023-04-16T09:19:18.400Z,997.67
2023-04-16T09:20:18.373Z,997.70
2023-04-16T09:21:18.363Z,997.73
2023-04-16T09:22:18.339Z,997.70
2023-04-16T09:23:18.344Z,997.78
2023-04-16T09:24:18.367Z,997.76
2023-04-16T09:25:18.320Z,997.81
2023-04-16T09:26:18.311Z,997.78
2023-04-16T09:27:18.309Z,997.76
2023-04-16T09:28:18.303Z,997.81
2023-04-16T09:29:18.289Z,997.83
2023-04-16T09:30:18.339Z,997.92
2023-04-16T09:31:18.347Z,997.86
2023-04-16T09:32:18.412Z,997.97
2023-04-16T09:33:19.259Z,997.98
2023-04-16T09:34:18.268Z,997.97
2023-04-16T09:35:18.268Z,997.86
2023-04-16T09:36:18.236Z,997.95
2023-04-16T09:37:18.266Z,998.02
2023-04-16T09:38:18.226Z,998.06
2023-04-16T09:39:18.209Z,998.03
2023-04-16T09:40:18.237Z,998.05
2023-04-16T09:41:18.193Z,998.05
2023-04-16T09:42:18.211Z,998.04
2023-04-16T09:43:18.181Z,998.00
2023-04-16T09:44:18.174Z,997.97
2023-04-16T09:45:18.220Z,998.11
2023-04-16T09:46:18.158Z,998.05
2023-04-16T09:47:18.264Z,997.96
2023-04-16T09:48:18.137Z,998.10
2023-04-16T09:49:18.143Z,998.00
2023-04-16T09:50:18.833Z,998.06
2023-04-16T09:51:18.120Z,997.95
2023-04-16T09:52:18.212Z,998.03
2023-04-16T09:53:18.107Z,998.05
2023-04-16T09:54:18.109Z,998.01
2023-04-16T09:55:18.123Z,998.05
2023-04-16T09:56:18.089Z,998.12
2023-04-16T09:57:18.077Z,998.17
2023-04-16T09:58:18.069Z,998.08
2023-04-16T09:59:18.092Z,998.14
2023-04-16T10:00:18.160Z,998.18
2023-04-16T10:01:18.099Z,998.19
2023-04-16T10:02:18.060Z,998.17
2023-04-16T10:03:18.083Z,998.22
2023-04-16T10:04:18.064Z,998.22
2023-04-16T10:05:18.049Z,998.27
2023-04-16T10:06:18.017Z,998.23
2023-04-16T10:07:17.999Z,998.22
2023-04-16T10:08:17.992Z,998.28
2023-04-16T10:09:17.988Z,998.31
2023-04-16T10:10:18.069Z,998.23
2023-04-16T10:11:18.984Z,998.31
2023-04-16T10:12:17.974Z,998.30
2023-04-16T10:13:17.965Z,998.34
2023-04-16T10:14:17.949Z,998.39
2023-04-16T10:15:17.966Z,998.40
2023-04-16T10:16:17.970Z,998.44
2023-04-16T10:17:17.937Z,998.45
2023-04-16T10:18:17.921Z,998.40
2023-04-16T10:19:17.908Z,998.43
2023-04-16T10:20:17.925Z,998.43
2023-04-16T10:21:17.916Z,998.45
2023-04-16T10:22:18.005Z,998.41
2023-04-16T10:23:17.880Z,998.43
2023-04-16T10:24:17.865Z,998.47
2023-04-16T10:25:18.902Z,998.48
2023-04-16T10:26:17.856Z,998.49
2023-04-16T10:27:17.852Z,998.54
2023-04-16T10:28:17.872Z,998.49
2023-04-16T10:29:17.860Z,998.47
2023-04-16T10:30:17.893Z,998.44
2023-04-16T10:31:17.881Z,998.55
2023-04-16T10:32:17.891Z,998.51
2023-04-16T10:33:17.843Z,998.54
2023-04-16T10:34:17.802Z,998.45
2023-04-16T10:35:17.797Z,998.53
2023-04-16T10:36:17.815Z,998.53
2023-04-16T10:37:17.782Z,998.55
2023-04-16T10:38:17.783Z,998.58
2023-04-16T10:39:17.927Z,998.58
2023-04-16T10:40:17.821Z,998.53
2023-04-16T10:41:17.746Z,998.56
2023-04-16T10:42:17.730Z,998.66
2023-04-16T10:43:17.727Z,998.55
2023-04-16T10:44:17.717Z,998.66
2023-04-16T10:45:17.736Z,998.62
2023-04-16T10:46:17.782Z,998.64
2023-04-16T10:47:17.752Z,998.55
2023-04-16T10:48:17.686Z,998.55
2023-04-16T10:49:17.689Z,998.60
2023-04-16T10:50:17.696Z,998.55
2023-04-16T10:51:17.691Z,998.52
2023-04-16T10:52:17.676Z,998.57
2023-04-16T10:53:17.657Z,998.55
2023-04-16T10:54:17.674Z,998.57
2023-04-16T10:55:17.667Z,998.52
2023-04-16T10:56:17.636Z,998.59
2023-04-16T10:57:17.660Z,998.68
2023-04-16T10:58:50.392Z,998.57
2023-04-16T10:59:17.629Z,998.64
2023-04-16T11:00:17.648Z,998.64
2023-04-16T11:01:17.639Z,998.61
2023-04-16T11:02:17.937Z,998.62
2023-04-16T11:03:17.753Z,998.64
2023-04-16T11:04:17.626Z,998.61
2023-04-16T11:05:17.605Z,998.61
2023-04-16T11:06:17.564Z,998.58
2023-04-16T11:07:17.551Z,998.64
2023-04-16T11:08:17.553Z,998.57
2023-04-16T11:09:17.569Z,998.59
2023-04-16T11:10:17.568Z,998.55
2023-04-16T11:11:17.520Z,998.64
2023-04-16T11:12:17.523Z,998.66
2023-04-16T11:13:17.514Z,998.67
2023-04-16T11:14:17.494Z,998.69
2023-04-16T11:15:17.516Z,998.73
2023-04-16T11:16:17.509Z,998.70
2023-04-16T11:17:17.474Z,998.70
2023-04-16T11:18:17.479Z,998.69
2023-04-16T11:19:17.471Z,998.71
2023-04-16T11:20:19.623Z,998.76
2023-04-16T11:21:17.453Z,998.69
2023-04-16T11:22:17.513Z,998.72
2023-04-16T11:23:17.435Z,998.76
2023-04-16T11:24:17.429Z,998.80
2023-04-16T11:25:17.452Z,998.76
2023-04-16T11:26:17.404Z,998.78
2023-04-16T11:27:17.401Z,998.83
2023-04-16T11:28:17.415Z,998.80
2023-04-16T11:29:17.389Z,998.81
2023-04-16T11:30:17.396Z,998.77
2023-04-16T11:31:17.433Z,998.77
2023-04-16T11:32:17.359Z,998.81
2023-04-16T11:33:17.352Z,998.78
2023-04-16T11:34:17.390Z,998.83
2023-04-16T11:35:17.363Z,998.82
2023-04-16T11:36:17.336Z,998.84
2023-04-16T11:37:17.324Z,998.86
2023-04-16T11:38:17.313Z,998.91
2023-04-16T11:39:17.309Z,998.87
2023-04-16T11:40:17.343Z,998.87
2023-04-16T11:41:17.355Z,998.90
2023-04-16T11:42:17.360Z,998.90
2023-04-16T11:43:17.303Z,998.95
2023-04-16T11:44:17.274Z,998.92
2023-04-16T11:45:17.315Z,998.92
2023-04-16T11:46:26.884Z,998.90
2023-04-16T11:47:19.296Z,998.87
2023-04-16T11:48:17.293Z,998.94
2023-04-16T11:49:17.248Z,998.92
2023-04-16T11:50:17.315Z,998.87
2023-04-16T11:51:17.232Z,998.93
2023-04-16T11:52:17.211Z,998.92
2023-04-16T11:53:17.252Z,998.94
2023-04-16T11:54:17.195Z,998.91
2023-04-16T11:55:17.192Z,998.86
2023-04-16T11:56:17.216Z,998.89
2023-04-16T11:57:17.171Z,998.91
2023-04-16T11:58:17.175Z,998.89
2023-04-16T11:59:17.227Z,998.89
2023-04-16T12:00:17.173Z,998.91
2023-04-16T12:01:17.172Z,998.90
2023-04-16T12:02:17.239Z,998.83
2023-04-16T12:03:17.237Z,998.92
2023-04-16T12:04:17.304Z,998.94
2023-04-16T12:05:17.310Z,998.96
2023-04-16T12:06:17.133Z,998.94
2023-04-16T12:07:17.098Z,998.92
2023-04-16T12:08:17.387Z,998.95
2023-04-16T12:09:17.932Z,998.93
2023-04-16T12:10:17.089Z,998.97
2023-04-16T12:11:17.555Z,998.95
2023-04-16T12:12:17.069Z,998.95
2023-04-16T12:13:17.065Z,999.03
2023-04-16T12:14:17.070Z,998.96
2023-04-16T12:15:17.124Z,998.95
2023-04-16T12:16:17.100Z,998.93
2023-04-16T12:17:17.033Z,998.96
2023-04-16T12:18:17.050Z,999.06
2023-04-16T12:19:17.008Z,999.04
2023-04-16T12:20:17.002Z,999.02
2023-04-16T12:21:17.041Z,999.01
2023-04-16T12:22:16.990Z,999.02
2023-04-16T12:23:16.986Z,998.99
2023-04-16T12:24:16.968Z,998.97
2023-04-16T12:25:16.973Z,999.02
2023-04-16T12:26:16.980Z,998.97
2023-04-16T12:27:16.950Z,999.06
2023-04-16T12:28:16.950Z,999.02
2023-04-16T12:29:16.948Z,999.07